sensor_id;sensor_type;location;lat;lon;timestamp;pressure;altitude;pressure_sealevel;temperature;humidity
61478;BME280;47345;52.334;10.392;2023-07-20T00:00:57;100514.14;;;15.75;74.84
61478;BME280;47345;52.334;10.392;2023-07-20T00:03:28;100512.19;;;15.73;75.03
61478;BME280;47345;52.334;10.392;2023-07-20T00:05:59;100515.51;;;15.71;75.42
61478;BME280;47345;52.334;10.392;2023-07-20T00:08:29;100516.94;;;15.68;75.53
61478;BME280;47345;52.334;10.392;2023-07-20T00:11:01;100519.05;;;15.66;75.76
61478;BME280;47345;52.334;10.392;2023-07-20T00:13:32;100514.43;;;15.64;75.96
61478;BME280;47345;52.334;10.392;2023-07-20T00:16:02;100514.45;;;15.59;76.18
61478;BME280;47345;52.334;10.392;2023-07-20T00:18:34;100517.44;;;15.57;76.21
61478;BME280;47345;52.334;10.392;2023-07-20T00:21:04;100518.02;;;15.52;76.22
61478;BME280;47345;52.334;10.392;2023-07-20T00:23:35;100517.91;;;15.47;76.24
61478;BME280;47345;52.334;10.392;2023-07-20T00:26:06;100510.25;;;15.41;76.25
61478;BME280;47345;52.334;10.392;2023-07-20T00:28:37;100512.48;;;15.37;76.30
61478;BME280;47345;52.334;10.392;2023-07-20T00:31:08;100516.80;;;15.32;76.53
61478;BME280;47345;52.334;10.392;2023-07-20T00:33:39;100510.92;;;15.27;76.88
61478;BME280;47345;52.334;10.392;2023-07-20T00:36:10;100508.06;;;15.24;77.07
61478;BME280;47345;52.334;10.392;2023-07-20T00:38:41;100504.60;;;15.23;77.37
61478;BME280;47345;52.334;10.392;2023-07-20T00:41:12;100507.23;;;15.23;77.55
61478;BME280;47345;52.334;10.392;2023-07-20T00:43:43;100506.27;;;15.24;77.85
61478;BME280;47345;52.334;10.392;2023-07-20T00:46:14;100508.95;;;15.26;77.98
61478;BME280;47345;52.334;10.392;2023-07-20T00:48:45;100505.15;;;15.25;78.10
61478;BME280;47345;52.334;10.392;2023-07-20T00:51:17;100508.25;;;15.21;78.25
61478;BME280;47345;52.334;10.392;2023-07-20T00:53:48;100510.11;;;15.15;78.24
61478;BME280;47345;52.334;10.392;2023-07-20T00:56:19;100504.86;;;15.08;78.26
61478;BME280;47345;52.334;10.392;2023-07-20T00:58:50;100504.69;;;15.06;78.38
61478;BME280;47345;52.334;10.392;2023-07-20T01:01:21;100501.52;;;15.01;78.39
61478;BME280;47345;52.334;10.392;2023-07-20T01:03:52;100505.20;;;14.97;78.64
61478;BME280;47345;52.334;10.392;2023-07-20T01:06:29;100506.03;;;14.91;78.63
61478;BME280;47345;52.334;10.392;2023-07-20T01:09:09;100510.39;;;14.89;78.63
61478;BME280;47345;52.334;10.392;2023-07-20T01:11:46;100507.68;;;14.83;78.84
61478;BME280;47345;52.334;10.392;2023-07-20T01:14:19;100512.60;;;14.79;79.05
61478;BME280;47345;52.334;10.392;2023-07-20T01:16:50;100513.19;;;14.73;79.15
61478;BME280;47345;52.334;10.392;2023-07-20T01:19:22;100512.77;;;14.68;79.33
61478;BME280;47345;52.334;10.392;2023-07-20T01:21:57;100508.36;;;14.66;79.50
61478;BME280;47345;52.334;10.392;2023-07-20T01:24:56;100507.98;;;14.66;79.44
61478;BME280;47345;52.334;10.392;2023-07-20T01:30:58;100504.51;;;14.66;79.42
61478;BME280;47345;52.334;10.392;2023-07-20T01:33:31;100504.82;;;14.63;79.50
61478;BME280;47345;52.334;10.392;2023-07-20T01:36:04;100503.60;;;14.60;79.57
61478;BME280;47345;52.334;10.392;2023-07-20T01:38:36;100512.71;;;14.59;79.71
61478;BME280;47345;52.334;10.392;2023-07-20T01:41:07;100508.61;;;14.59;79.79
61478;BME280;47345;52.334;10.392;2023-07-20T01:43:38;100508.66;;;14.61;79.89
61478;BME280;47345;52.334;10.392;2023-07-20T01:46:09;100515.80;;;14.64;79.83
61478;BME280;47345;52.334;10.392;2023-07-20T01:48:40;100513.95;;;14.64;79.72
61478;BME280;47345;52.334;10.392;2023-07-20T01:51:11;100512.98;;;14.65;80.06
61478;BME280;47345;52.334;10.392;2023-07-20T01:53:42;100510.47;;;14.66;80.18
61478;BME280;47345;52.334;10.392;2023-07-20T01:56:13;100508.95;;;14.69;80.18
61478;BME280;47345;52.334;10.392;2023-07-20T01:58:44;100507.80;;;14.71;80.24
61478;BME280;47345;52.334;10.392;2023-07-20T02:01:14;100506.09;;;14.73;80.32
61478;BME280;47345;52.334;10.392;2023-07-20T02:03:45;100509.42;;;14.74;80.60
61478;BME280;47345;52.334;10.392;2023-07-20T02:06:16;100508.52;;;14.75;80.87
61478;BME280;47345;52.334;10.392;2023-07-20T02:08:47;100506.64;;;14.78;80.84
61478;BME280;47345;52.334;10.392;2023-07-20T02:11:18;100508.76;;;14.82;81.08
61478;BME280;47345;52.334;10.392;2023-07-20T02:13:49;100510.25;;;14.85;81.13
61478;BME280;47345;52.334;10.392;2023-07-20T02:16:19;100510.86;;;14.85;81.04
61478;BME280;47345;52.334;10.392;2023-07-20T02:18:51;100512.27;;;14.84;81.17
61478;BME280;47345;52.334;10.392;2023-07-20T02:21:23;100515.17;;;14.84;81.10
61478;BME280;47345;52.334;10.392;2023-07-20T02:23:54;100515.95;;;14.83;80.98
61478;BME280;47345;52.334;10.392;2023-07-20T02:26:25;100521.09;;;14.85;80.98
61478;BME280;47345;52.334;10.392;2023-07-20T02:28:56;100518.77;;;14.86;80.68
61478;BME280;47345;52.334;10.392;2023-07-20T02:31:27;100515.06;;;14.86;80.57
61478;BME280;47345;52.334;10.392;2023-07-20T02:33:57;100516.65;;;14.88;80.36
61478;BME280;47345;52.334;10.392;2023-07-20T02:36:28;100518.01;;;14.90;80.32
61478;BME280;47345;52.334;10.392;2023-07-20T02:38:59;100519.71;;;14.92;80.30
61478;BME280;47345;52.334;10.392;2023-07-20T02:41:32;100519.11;;;14.92;80.19
61478;BME280;47345;52.334;10.392;2023-07-20T02:44:03;100519.20;;;14.92;80.05
61478;BME280;47345;52.334;10.392;2023-07-20T02:46:34;100520.60;;;14.90;80.03
61478;BME280;47345;52.334;10.392;2023-07-20T02:49:05;100520.14;;;14.89;80.09
61478;BME280;47345;52.334;10.392;2023-07-20T02:51:35;100522.08;;;14.90;80.14
61478;BME280;47345;52.334;10.392;2023-07-20T02:54:06;100524.15;;;14.91;80.11
61478;BME280;47345;52.334;10.392;2023-07-20T02:56:37;100525.14;;;14.91;80.10
61478;BME280;47345;52.334;10.392;2023-07-20T02:59:08;100525.02;;;14.88;80.11
61478;BME280;47345;52.334;10.392;2023-07-20T03:01:39;100529.73;;;14.87;80.10
61478;BME280;47345;52.334;10.392;2023-07-20T03:04:11;100524.23;;;14.87;80.22
61478;BME280;47345;52.334;10.392;2023-07-20T03:06:42;100524.81;;;14.86;80.35
61478;BME280;47345;52.334;10.392;2023-07-20T03:09:13;100529.39;;;14.89;80.34
61478;BME280;47345;52.334;10.392;2023-07-20T03:11:45;100531.06;;;14.90;80.36
61478;BME280;47345;52.334;10.392;2023-07-20T03:14:15;100529.44;;;14.91;80.50
61478;BME280;47345;52.334;10.392;2023-07-20T03:16:46;100530.41;;;14.90;80.55
61478;BME280;47345;52.334;10.392;2023-07-20T03:19:17;100532.80;;;14.91;80.44
61478;BME280;47345;52.334;10.392;2023-07-20T03:21:49;100532.77;;;14.89;80.55
61478;BME280;47345;52.334;10.392;2023-07-20T03:24:20;100529.67;;;14.89;80.50
61478;BME280;47345;52.334;10.392;2023-07-20T03:26:52;100527.41;;;14.89;80.57
61478;BME280;47345;52.334;10.392;2023-07-20T03:29:24;100534.61;;;14.93;80.57
61478;BME280;47345;52.334;10.392;2023-07-20T03:31:55;100532.27;;;15.00;80.49
61478;BME280;47345;52.334;10.392;2023-07-20T03:34:26;100532.88;;;15.08;80.10
61478;BME280;47345;52.334;10.392;2023-07-20T03:36:56;100528.31;;;15.16;79.91
61478;BME280;47345;52.334;10.392;2023-07-20T03:39:29;100527.24;;;15.25;79.67
61478;BME280;47345;52.334;10.392;2023-07-20T03:42:00;100529.00;;;15.30;79.22
61478;BME280;47345;52.334;10.392;2023-07-20T03:44:30;100523.84;;;15.33;79.16
61478;BME280;47345;52.334;10.392;2023-07-20T03:47:01;100523.27;;;15.35;79.17
61478;BME280;47345;52.334;10.392;2023-07-20T03:49:33;100529.88;;;15.39;78.96
61478;BME280;47345;52.334;10.392;2023-07-20T03:52:05;100527.61;;;15.41;78.65
61478;BME280;47345;52.334;10.392;2023-07-20T03:54:36;100527.23;;;15.45;78.71
61478;BME280;47345;52.334;10.392;2023-07-20T03:57:07;100529.19;;;15.49;78.72
61478;BME280;47345;52.334;10.392;2023-07-20T03:59:44;100529.97;;;15.58;78.56
61478;BME280;47345;52.334;10.392;2023-07-20T04:02:15;100533.56;;;15.72;78.06
61478;BME280;47345;52.334;10.392;2023-07-20T04:04:46;100532.17;;;15.75;77.92
61478;BME280;47345;52.334;10.392;2023-07-20T04:07:17;100528.94;;;15.82;77.79
61478;BME280;47345;52.334;10.392;2023-07-20T04:09:47;100524.67;;;15.89;77.65
61478;BME280;47345;52.334;10.392;2023-07-20T04:12:18;100529.19;;;15.92;77.50
61478;BME280;47345;52.334;10.392;2023-07-20T04:14:49;100531.88;;;15.93;77.57
61478;BME280;47345;52.334;10.392;2023-07-20T04:17:19;100523.53;;;15.96;77.47
61478;BME280;47345;52.334;10.392;2023-07-20T04:19:50;100521.35;;;16.01;77.36
61478;BME280;47345;52.334;10.392;2023-07-20T04:22:21;100517.64;;;16.03;77.08
61478;BME280;47345;52.334;10.392;2023-07-20T04:24:52;100521.36;;;16.07;77.22
61478;BME280;47345;52.334;10.392;2023-07-20T04:27:23;100521.39;;;16.09;76.98
61478;BME280;47345;52.334;10.392;2023-07-20T04:29:54;100524.45;;;16.11;76.80
61478;BME280;47345;52.334;10.392;2023-07-20T04:32:25;100524.52;;;16.15;76.94
61478;BME280;47345;52.334;10.392;2023-07-20T04:34:55;100515.91;;;16.22;76.97
61478;BME280;47345;52.334;10.392;2023-07-20T04:37:26;100526.77;;;16.34;76.77
61478;BME280;47345;52.334;10.392;2023-07-20T04:39:57;100529.91;;;16.45;76.50
61478;BME280;47345;52.334;10.392;2023-07-20T04:42:28;100532.49;;;16.59;76.19
61478;BME280;47345;52.334;10.392;2023-07-20T04:44:58;100528.02;;;16.71;75.68
61478;BME280;47345;52.334;10.392;2023-07-20T04:47:29;100532.55;;;16.81;75.34
61478;BME280;47345;52.334;10.392;2023-07-20T04:50:00;100535.67;;;16.90;75.05
61478;BME280;47345;52.334;10.392;2023-07-20T04:52:32;100544.02;;;16.94;74.78
61478;BME280;47345;52.334;10.392;2023-07-20T04:55:11;100539.16;;;16.95;74.67
61478;BME280;47345;52.334;10.392;2023-07-20T04:57:44;100532.67;;;16.94;74.55
61478;BME280;47345;52.334;10.392;2023-07-20T05:00:16;100541.00;;;16.93;74.33
61478;BME280;47345;52.334;10.392;2023-07-20T05:02:47;100546.24;;;16.92;74.17
61478;BME280;47345;52.334;10.392;2023-07-20T05:05:18;100544.62;;;16.94;74.07
61478;BME280;47345;52.334;10.392;2023-07-20T05:07:49;100546.34;;;16.97;74.03
61478;BME280;47345;52.334;10.392;2023-07-20T05:10:20;100543.11;;;17.00;74.02
61478;BME280;47345;52.334;10.392;2023-07-20T05:12:51;100545.10;;;17.04;74.04
61478;BME280;47345;52.334;10.392;2023-07-20T05:15:22;100547.09;;;17.07;73.99
61478;BME280;47345;52.334;10.392;2023-07-20T05:17:52;100548.80;;;17.09;73.94
61478;BME280;47345;52.334;10.392;2023-07-20T05:20:23;100552.14;;;17.09;73.78
61478;BME280;47345;52.334;10.392;2023-07-20T05:22:54;100561.63;;;17.08;73.88
61478;BME280;47345;52.334;10.392;2023-07-20T05:25:25;100562.20;;;17.09;74.00
61478;BME280;47345;52.334;10.392;2023-07-20T05:27:59;100561.68;;;17.08;74.05
61478;BME280;47345;52.334;10.392;2023-07-20T05:30:30;100561.65;;;17.03;73.90
61478;BME280;47345;52.334;10.392;2023-07-20T05:33:01;100561.23;;;16.96;74.16
61478;BME280;47345;52.334;10.392;2023-07-20T05:35:32;100562.59;;;16.88;74.34
61478;BME280;47345;52.334;10.392;2023-07-20T05:38:02;100560.74;;;16.82;74.31
61478;BME280;47345;52.334;10.392;2023-07-20T05:40:35;100561.45;;;16.78;74.73
61478;BME280;47345;52.334;10.392;2023-07-20T05:43:06;100560.86;;;16.82;75.11
61478;BME280;47345;52.334;10.392;2023-07-20T05:45:37;100564.17;;;16.89;75.21
61478;BME280;47345;52.334;10.392;2023-07-20T05:48:08;100569.14;;;16.96;75.15
61478;BME280;47345;52.334;10.392;2023-07-20T05:50:43;100571.86;;;17.01;75.66
61478;BME280;47345;52.334;10.392;2023-07-20T05:53:14;100573.55;;;17.08;75.97
61478;BME280;47345;52.334;10.392;2023-07-20T05:55:45;100573.40;;;17.08;74.98
61478;BME280;47345;52.334;10.392;2023-07-20T05:58:22;100575.44;;;17.04;75.03
61478;BME280;47345;52.334;10.392;2023-07-20T06:00:54;100583.02;;;17.00;75.07
61478;BME280;47345;52.334;10.392;2023-07-20T06:03:25;100583.15;;;16.88;74.49
61478;BME280;47345;52.334;10.392;2023-07-20T06:06:00;100581.29;;;16.78;75.25
61478;BME280;47345;52.334;10.392;2023-07-20T06:08:31;100581.63;;;16.71;75.41
61478;BME280;47345;52.334;10.392;2023-07-20T06:11:02;100590.34;;;16.63;75.80
61478;BME280;47345;52.334;10.392;2023-07-20T06:13:33;100591.33;;;16.56;76.17
61478;BME280;47345;52.334;10.392;2023-07-20T06:16:05;100592.14;;;16.45;76.56
61478;BME280;47345;52.334;10.392;2023-07-20T06:18:36;100588.68;;;16.36;76.90
61478;BME280;47345;52.334;10.392;2023-07-20T06:21:06;100592.23;;;16.31;77.50
61478;BME280;47345;52.334;10.392;2023-07-20T06:23:37;100585.57;;;16.24;77.56
61478;BME280;47345;52.334;10.392;2023-07-20T06:26:08;100590.34;;;16.18;77.88
61478;BME280;47345;52.334;10.392;2023-07-20T06:28:40;100593.39;;;16.09;78.48
61478;BME280;47345;52.334;10.392;2023-07-20T06:31:10;100598.46;;;16.02;78.71
61478;BME280;47345;52.334;10.392;2023-07-20T06:33:42;100598.96;;;15.97;79.03
61478;BME280;47345;52.334;10.392;2023-07-20T06:36:12;100601.23;;;15.98;79.50
61478;BME280;47345;52.334;10.392;2023-07-20T06:38:43;100600.67;;;16.02;79.69
61478;BME280;47345;52.334;10.392;2023-07-20T06:41:34;100607.64;;;16.06;79.46
61478;BME280;47345;52.334;10.392;2023-07-20T06:44:08;100608.98;;;16.08;79.58
61478;BME280;47345;52.334;10.392;2023-07-20T06:46:38;100609.23;;;16.11;79.91
61478;BME280;47345;52.334;10.392;2023-07-20T06:49:09;100614.15;;;16.16;80.17
61478;BME280;47345;52.334;10.392;2023-07-20T06:51:43;100614.80;;;16.23;80.24
61478;BME280;47345;52.334;10.392;2023-07-20T06:54:13;100615.04;;;16.28;80.38
61478;BME280;47345;52.334;10.392;2023-07-20T06:56:45;100618.29;;;16.36;80.50
61478;BME280;47345;52.334;10.392;2023-07-20T06:59:35;100613.96;;;16.46;80.48
61478;BME280;47345;52.334;10.392;2023-07-20T07:02:10;100615.92;;;16.61;80.09
61478;BME280;47345;52.334;10.392;2023-07-20T07:04:43;100608.09;;;16.87;80.31
61478;BME280;47345;52.334;10.392;2023-07-20T07:07:15;100609.27;;;17.09;79.83
61478;BME280;47345;52.334;10.392;2023-07-20T07:09:55;100614.73;;;17.26;79.61
61478;BME280;47345;52.334;10.392;2023-07-20T07:12:26;100614.38;;;17.51;79.53
61478;BME280;47345;52.334;10.392;2023-07-20T07:14:57;100616.38;;;17.69;78.21
61478;BME280;47345;52.334;10.392;2023-07-20T07:17:28;100618.98;;;17.70;77.36
61478;BME280;47345;52.334;10.392;2023-07-20T07:19:59;100622.39;;;17.60;77.90
61478;BME280;47345;52.334;10.392;2023-07-20T07:22:30;100616.93;;;17.52;77.86
61478;BME280;47345;52.334;10.392;2023-07-20T07:25:01;100613.17;;;17.53;77.77
61478;BME280;47345;52.334;10.392;2023-07-20T07:27:32;100604.21;;;17.66;77.18
61478;BME280;47345;52.334;10.392;2023-07-20T07:30:03;100610.05;;;17.78;76.23
61478;BME280;47345;52.334;10.392;2023-07-20T07:32:35;100612.56;;;17.89;75.72
61478;BME280;47345;52.334;10.392;2023-07-20T07:35:07;100612.91;;;18.05;75.55
61478;BME280;47345;52.334;10.392;2023-07-20T07:37:38;100614.13;;;18.32;75.81
61478;BME280;47345;52.334;10.392;2023-07-20T07:40:26;100621.59;;;18.63;74.76
61478;BME280;47345;52.334;10.392;2023-07-20T07:42:57;100631.15;;;18.87;73.95
61478;BME280;47345;52.334;10.392;2023-07-20T07:45:27;100626.80;;;19.04;73.18
61478;BME280;47345;52.334;10.392;2023-07-20T07:47:59;100632.08;;;19.16;72.58
61478;BME280;47345;52.334;10.392;2023-07-20T07:50:29;100634.60;;;19.20;72.30
61478;BME280;47345;52.334;10.392;2023-07-20T07:53:00;100627.89;;;19.27;72.21
61478;BME280;47345;52.334;10.392;2023-07-20T07:55:32;100629.58;;;19.42;71.67
61478;BME280;47345;52.334;10.392;2023-07-20T07:58:03;100630.11;;;19.49;70.72
61478;BME280;47345;52.334;10.392;2023-07-20T08:00:34;100629.95;;;19.53;70.15
61478;BME280;47345;52.334;10.392;2023-07-20T08:03:05;100635.10;;;19.64;69.53
61478;BME280;47345;52.334;10.392;2023-07-20T08:05:36;100633.45;;;19.70;69.44
61478;BME280;47345;52.334;10.392;2023-07-20T08:08:07;100635.80;;;19.85;68.74
61478;BME280;47345;52.334;10.392;2023-07-20T08:10:39;100638.77;;;20.04;67.15
61478;BME280;47345;52.334;10.392;2023-07-20T08:13:10;100635.21;;;20.01;65.95
61478;BME280;47345;52.334;10.392;2023-07-20T08:15:45;100646.64;;;19.96;66.22
61478;BME280;47345;52.334;10.392;2023-07-20T08:18:19;100648.38;;;20.09;65.69
61478;BME280;47345;52.334;10.392;2023-07-20T08:20:51;100652.98;;;20.24;65.50
61478;BME280;47345;52.334;10.392;2023-07-20T08:23:22;100652.70;;;20.24;64.24
61478;BME280;47345;52.334;10.392;2023-07-20T08:25:53;100654.42;;;20.24;63.76
61478;BME280;47345;52.334;10.392;2023-07-20T08:28:24;100652.65;;;20.30;64.04
61478;BME280;47345;52.334;10.392;2023-07-20T08:30:56;100652.71;;;20.33;64.03
61478;BME280;47345;52.334;10.392;2023-07-20T08:33:27;100655.86;;;20.27;64.04
61478;BME280;47345;52.334;10.392;2023-07-20T08:36:03;100657.94;;;20.10;63.21
61478;BME280;47345;52.334;10.392;2023-07-20T08:38:36;100657.19;;;19.98;64.31
61478;BME280;47345;52.334;10.392;2023-07-20T08:41:07;100654.25;;;20.00;64.08
61478;BME280;47345;52.334;10.392;2023-07-20T08:43:43;100652.35;;;20.17;63.86
61478;BME280;47345;52.334;10.392;2023-07-20T08:46:14;100653.73;;;20.49;63.29
61478;BME280;47345;52.334;10.392;2023-07-20T08:48:45;100649.57;;;20.70;61.83
61478;BME280;47345;52.334;10.392;2023-07-20T08:51:17;100647.06;;;20.73;60.37
61478;BME280;47345;52.334;10.392;2023-07-20T08:53:51;100647.69;;;20.77;60.09
61478;BME280;47345;52.334;10.392;2023-07-20T08:56:25;100650.09;;;20.87;58.97
61478;BME280;47345;52.334;10.392;2023-07-20T08:58:56;100649.52;;;21.09;58.80
61478;BME280;47345;52.334;10.392;2023-07-20T09:01:28;100650.30;;;21.05;58.36
61478;BME280;47345;52.334;10.392;2023-07-20T09:03:59;100653.97;;;20.71;57.53
61478;BME280;47345;52.334;10.392;2023-07-20T09:06:30;100652.50;;;20.39;55.54
61478;BME280;47345;52.334;10.392;2023-07-20T09:09:01;100651.04;;;20.29;56.93
61478;BME280;47345;52.334;10.392;2023-07-20T09:11:32;100645.34;;;20.53;58.98
61478;BME280;47345;52.334;10.392;2023-07-20T09:14:08;100649.19;;;20.88;59.78
61478;BME280;47345;52.334;10.392;2023-07-20T09:16:51;100649.43;;;21.23;58.63
61478;BME280;47345;52.334;10.392;2023-07-20T09:19:22;100648.20;;;21.47;57.41
61478;BME280;47345;52.334;10.392;2023-07-20T09:21:53;100651.21;;;21.45;54.04
61478;BME280;47345;52.334;10.392;2023-07-20T09:24:24;100655.04;;;21.51;54.04
61478;BME280;47345;52.334;10.392;2023-07-20T09:26:55;100654.52;;;21.56;54.81
61478;BME280;47345;52.334;10.392;2023-07-20T09:29:26;100653.46;;;21.55;52.41
61478;BME280;47345;52.334;10.392;2023-07-20T09:32:02;100651.32;;;21.70;53.89
61478;BME280;47345;52.334;10.392;2023-07-20T09:34:34;100653.56;;;21.91;52.47
61478;BME280;47345;52.334;10.392;2023-07-20T09:37:09;100650.85;;;21.98;51.85
61478;BME280;47345;52.334;10.392;2023-07-20T09:39:45;100651.19;;;21.86;50.46
61478;BME280;47345;52.334;10.392;2023-07-20T09:42:18;100653.25;;;21.49;51.92
61478;BME280;47345;52.334;10.392;2023-07-20T09:44:53;100651.34;;;21.18;50.74
61478;BME280;47345;52.334;10.392;2023-07-20T09:47:24;100654.70;;;21.00;50.71
61478;BME280;47345;52.334;10.392;2023-07-20T09:50:07;100654.88;;;21.24;51.62
61478;BME280;47345;52.334;10.392;2023-07-20T09:52:43;100656.67;;;21.79;51.48
61478;BME280;47345;52.334;10.392;2023-07-20T09:55:17;100646.80;;;22.40;48.10
61478;BME280;47345;52.334;10.392;2023-07-20T09:57:50;100650.40;;;22.87;48.62
61478;BME280;47345;52.334;10.392;2023-07-20T10:00:23;100648.27;;;22.96;47.18
61478;BME280;47345;52.334;10.392;2023-07-20T10:02:57;100652.08;;;22.93;47.31
61478;BME280;47345;52.334;10.392;2023-07-20T10:05:29;100652.27;;;22.72;45.41
61478;BME280;47345;52.334;10.392;2023-07-20T10:08:05;100651.20;;;22.32;46.03
61478;BME280;47345;52.334;10.392;2023-07-20T10:10:43;100650.48;;;21.95;47.18
61478;BME280;47345;52.334;10.392;2023-07-20T10:13:19;100646.87;;;21.81;48.26
61478;BME280;47345;52.334;10.392;2023-07-20T10:15:56;100645.16;;;21.90;49.85
61478;BME280;47345;52.334;10.392;2023-07-20T10:18:31;100643.52;;;22.15;49.32
61478;BME280;47345;52.334;10.392;2023-07-20T10:21:04;100644.01;;;22.40;47.28
61478;BME280;47345;52.334;10.392;2023-07-20T10:23:40;100638.54;;;22.74;46.41
61478;BME280;47345;52.334;10.392;2023-07-20T10:26:11;100638.84;;;23.24;45.65
61478;BME280;47345;52.334;10.392;2023-07-20T10:28:43;100634.86;;;23.79;44.30
61478;BME280;47345;52.334;10.392;2023-07-20T10:31:14;100634.95;;;24.06;43.16
61478;BME280;47345;52.334;10.392;2023-07-20T10:33:46;100631.80;;;24.04;41.49
61478;BME280;47345;52.334;10.392;2023-07-20T10:36:21;100632.88;;;23.84;41.99
61478;BME280;47345;52.334;10.392;2023-07-20T10:38:57;100632.40;;;23.51;42.02
61478;BME280;47345;52.334;10.392;2023-07-20T10:41:33;100628.02;;;23.26;41.99
61478;BME280;47345;52.334;10.392;2023-07-20T10:44:05;100630.14;;;23.31;42.30
61478;BME280;47345;52.334;10.392;2023-07-20T10:46:43;100622.98;;;23.37;43.79
61478;BME280;47345;52.334;10.392;2023-07-20T10:49:16;100622.36;;;23.21;43.71
61478;BME280;47345;52.334;10.392;2023-07-20T10:51:55;100632.23;;;22.86;43.00
61478;BME280;47345;52.334;10.392;2023-07-20T10:57:30;100635.94;;;22.23;45.35
61478;BME280;47345;52.334;10.392;2023-07-20T11:00:12;100637.77;;;22.15;46.07
61478;BME280;47345;52.334;10.392;2023-07-20T11:02:49;100639.27;;;22.16;46.56
61478;BME280;47345;52.334;10.392;2023-07-20T11:05:40;100635.47;;;22.10;46.74
61478;BME280;47345;52.334;10.392;2023-07-20T11:08:41;100637.21;;;21.97;47.03
61478;BME280;47345;52.334;10.392;2023-07-20T11:11:29;100638.02;;;21.78;46.69
61478;BME280;47345;52.334;10.392;2023-07-20T11:14:01;100641.05;;;21.60;46.45
61478;BME280;47345;52.334;10.392;2023-07-20T11:16:40;100641.50;;;21.51;47.18
61478;BME280;47345;52.334;10.392;2023-07-20T11:19:19;100640.72;;;21.86;47.72
61478;BME280;47345;52.334;10.392;2023-07-20T11:21:54;100638.63;;;22.29;47.03
61478;BME280;47345;52.334;10.392;2023-07-20T11:24:32;100633.53;;;22.79;45.69
61478;BME280;47345;52.334;10.392;2023-07-20T11:27:04;100632.86;;;23.21;44.90
61478;BME280;47345;52.334;10.392;2023-07-20T11:29:37;100629.02;;;23.41;43.77
61478;BME280;47345;52.334;10.392;2023-07-20T11:32:09;100634.70;;;23.25;44.50
61478;BME280;47345;52.334;10.392;2023-07-20T11:34:42;100637.02;;;22.92;44.51
61478;BME280;47345;52.334;10.392;2023-07-20T11:37:19;100637.40;;;22.56;44.81
61478;BME280;47345;52.334;10.392;2023-07-20T11:39:49;100633.04;;;22.23;44.49
61478;BME280;47345;52.334;10.392;2023-07-20T11:42:25;100632.05;;;21.95;46.49
61478;BME280;47345;52.334;10.392;2023-07-20T11:44:59;100632.38;;;21.95;47.63
61478;BME280;47345;52.334;10.392;2023-07-20T11:47:35;100628.04;;;22.14;48.04
61478;BME280;47345;52.334;10.392;2023-07-20T11:50:12;100630.95;;;22.12;46.66
61478;BME280;47345;52.334;10.392;2023-07-20T11:52:43;100622.92;;;22.02;45.92
61478;BME280;47345;52.334;10.392;2023-07-20T11:55:14;100625.64;;;21.96;45.36
61478;BME280;47345;52.334;10.392;2023-07-20T12:00:47;100628.52;;;22.17;44.81
61478;BME280;47345;52.334;10.392;2023-07-20T12:03:19;100630.10;;;22.36;44.79
61478;BME280;47345;52.334;10.392;2023-07-20T12:05:51;100630.42;;;22.50;43.85
61478;BME280;47345;52.334;10.392;2023-07-20T12:08:30;100630.10;;;22.75;45.44
61478;BME280;47345;52.334;10.392;2023-07-20T12:11:01;100626.82;;;23.10;44.62
61478;BME280;47345;52.334;10.392;2023-07-20T12:13:43;100628.40;;;23.36;42.39
61478;BME280;47345;52.334;10.392;2023-07-20T12:16:16;100623.02;;;23.66;42.75
61478;BME280;47345;52.334;10.392;2023-07-20T12:18:47;100619.45;;;23.70;40.47
61478;BME280;47345;52.334;10.392;2023-07-20T12:21:20;100619.01;;;23.47;41.20
61478;BME280;47345;52.334;10.392;2023-07-20T12:23:51;100621.36;;;23.32;43.08
61478;BME280;47345;52.334;10.392;2023-07-20T12:26:23;100616.36;;;23.43;42.00
61478;BME280;47345;52.334;10.392;2023-07-20T12:28:55;100610.65;;;23.60;42.52
61478;BME280;47345;52.334;10.392;2023-07-20T12:31:26;100609.91;;;23.82;40.23
61478;BME280;47345;52.334;10.392;2023-07-20T12:33:58;100607.70;;;23.96;40.22
61478;BME280;47345;52.334;10.392;2023-07-20T12:36:28;100602.97;;;24.23;39.94
61478;BME280;47345;52.334;10.392;2023-07-20T12:39:00;100606.45;;;24.56;40.44
61478;BME280;47345;52.334;10.392;2023-07-20T12:41:30;100600.76;;;24.84;39.05
61478;BME280;47345;52.334;10.392;2023-07-20T12:44:01;100598.79;;;25.02;39.64
61478;BME280;47345;52.334;10.392;2023-07-20T12:46:32;100600.13;;;25.17;39.16
61478;BME280;47345;52.334;10.392;2023-07-20T12:49:04;100603.74;;;25.30;39.75
61478;BME280;47345;52.334;10.392;2023-07-20T12:51:35;100598.45;;;25.24;37.45
61478;BME280;47345;52.334;10.392;2023-07-20T12:54:06;100597.89;;;25.12;37.17
61478;BME280;47345;52.334;10.392;2023-07-20T12:56:37;100594.55;;;25.08;35.73
61478;BME280;47345;52.334;10.392;2023-07-20T12:59:11;100591.62;;;25.18;36.83
61478;BME280;47345;52.334;10.392;2023-07-20T13:01:42;100598.10;;;25.41;36.13
61478;BME280;47345;52.334;10.392;2023-07-20T13:04:13;100592.55;;;25.56;35.27
61478;BME280;47345;52.334;10.392;2023-07-20T13:06:44;100594.36;;;25.46;35.30
61478;BME280;47345;52.334;10.392;2023-07-20T13:09:15;100591.13;;;25.34;35.97
61478;BME280;47345;52.334;10.392;2023-07-20T13:11:46;100598.88;;;25.48;36.28
61478;BME280;47345;52.334;10.392;2023-07-20T13:14:17;100595.05;;;25.68;36.51
61478;BME280;47345;52.334;10.392;2023-07-20T13:16:48;100595.24;;;25.82;38.00